sensor_id;sensor_type;location;lat;lon;timestamp;P1;durP1;ratioP1;P2;durP2;ratioP2
3771;SDS011;1901;48.172;12.824;2023-04-16T00:00:16;11.50;;;9.07;;
3771;SDS011;1901;48.172;12.824;2023-04-16T00:02:43;16.57;;;10.97;;
3771;SDS011;1901;48.172;12.824;2023-04-16T00:05:10;12.67;;;10.10;;
3771;SDS011;1901;48.172;12.824;2023-04-16T00:07:37;15.03;;;10.30;;
3771;SDS011;1901;48.172;12.824;2023-04-16T00:10:05;11.20;;;9.03;;
3771;SDS011;1901;48.172;12.824;2023-04-16T00:12:32;13.30;;;9.60;;
3771;SDS011;1901;48.172;12.824;2023-04-16T00:15:02;16.27;;;9.20;;
3771;SDS011;1901;48.172;12.824;2023-04-16T00:17:29;13.83;;;8.70;;
3771;SDS011;1901;48.172;12.824;2023-04-16T00:19:56;16.30;;;9.80;;
3771;SDS011;1901;48.172;12.824;2023-04-16T00:22:23;14.90;;;9.93;;
3771;SDS011;1901;48.172;12.824;2023-04-16T00:24:50;9.03;;;8.00;;
3771;SDS011;1901;48.172;12.824;2023-04-16T00:27:17;13.00;;;8.63;;
3771;SDS011;1901;48.172;12.824;2023-04-16T00:29:45;11.03;;;7.63;;
3771;SDS011;1901;48.172;12.824;2023-04-16T00:32:13;12.47;;;7.70;;
3771;SDS011;1901;48.172;12.824;2023-04-16T00:34:40;14.10;;;8.70;;
3771;SDS011;1901;48.172;12.824;2023-04-16T00:37:07;12.50;;;8.83;;
3771;SDS011;1901;48.172;12.824;2023-04-16T00:39:34;11.80;;;7.70;;
3771;SDS011;1901;48.172;12.824;2023-04-16T00:42:02;12.97;;;8.30;;
3771;SDS011;1901;48.172;12.824;2023-04-16T00:44:29;10.40;;;7.93;;
3771;SDS011;1901;48.172;12.824;2023-04-16T00:46:58;11.07;;;8.00;;
3771;SDS011;1901;48.172;12.824;2023-04-16T00:49:27;10.60;;;8.27;;
3771;SDS011;1901;48.172;12.824;2023-04-16T00:51:55;9.80;;;7.83;;
3771;SDS011;1901;48.172;12.824;2023-04-16T00:54:23;12.77;;;8.40;;
3771;SDS011;1901;48.172;12.824;2023-04-16T00:56:50;12.73;;;8.23;;
3771;SDS011;1901;48.172;12.824;2023-04-16T00:59:18;13.13;;;9.70;;
3771;SDS011;1901;48.172;12.824;2023-04-16T01:01:45;10.63;;;8.10;;
3771;SDS011;1901;48.172;12.824;2023-04-16T01:04:12;10.63;;;7.60;;
3771;SDS011;1901;48.172;12.824;2023-04-16T01:06:41;10.70;;;8.20;;
3771;SDS011;1901;48.172;12.824;2023-04-16T01:09:08;10.60;;;8.20;;
3771;SDS011;1901;48.172;12.824;2023-04-16T01:11:36;11.70;;;7.67;;
3771;SDS011;1901;48.172;12.824;2023-04-16T01:14:03;11.33;;;7.37;;
3771;SDS011;1901;48.172;12.824;2023-04-16T01:16:31;10.23;;;8.63;;
3771;SDS011;1901;48.172;12.824;2023-04-16T01:18:58;10.80;;;7.80;;
3771;SDS011;1901;48.172;12.824;2023-04-16T01:21:26;11.83;;;7.70;;
3771;SDS011;1901;48.172;12.824;2023-04-16T01:23:53;9.20;;;7.70;;
3771;SDS011;1901;48.172;12.824;2023-04-16T01:26:21;8.80;;;7.60;;
3771;SDS011;1901;48.172;12.824;2023-04-16T01:28:48;13.20;;;9.23;;
3771;SDS011;1901;48.172;12.824;2023-04-16T01:31:15;9.73;;;7.63;;
3771;SDS011;1901;48.172;12.824;2023-04-16T01:33:42;10.10;;;8.60;;
3771;SDS011;1901;48.172;12.824;2023-04-16T01:36:09;9.40;;;7.43;;
3771;SDS011;1901;48.172;12.824;2023-04-16T01:38:38;10.20;;;8.00;;
3771;SDS011;1901;48.172;12.824;2023-04-16T01:41:05;8.67;;;6.83;;
3771;SDS011;1901;48.172;12.824;2023-04-16T01:43:32;10.63;;;7.53;;
3771;SDS011;1901;48.172;12.824;2023-04-16T01:46:07;8.60;;;7.00;;
3771;SDS011;1901;48.172;12.824;2023-04-16T01:48:38;10.30;;;6.90;;
3771;SDS011;1901;48.172;12.824;2023-04-16T01:51:05;10.50;;;7.53;;
3771;SDS011;1901;48.172;12.824;2023-04-16T01:53:32;9.00;;;6.77;;
3771;SDS011;1901;48.172;12.824;2023-04-16T01:56:00;10.27;;;7.30;;
3771;SDS011;1901;48.172;12.824;2023-04-16T01:58:27;11.40;;;6.40;;
3771;SDS011;1901;48.172;12.824;2023-04-16T02:00:55;12.13;;;7.87;;
3771;SDS011;1901;48.172;12.824;2023-04-16T02:03:22;10.60;;;7.43;;
3771;SDS011;1901;48.172;12.824;2023-04-16T02:05:49;10.97;;;8.47;;
3771;SDS011;1901;48.172;12.824;2023-04-16T02:08:16;9.83;;;7.90;;
3771;SDS011;1901;48.172;12.824;2023-04-16T02:10:44;12.23;;;7.00;;
3771;SDS011;1901;48.172;12.824;2023-04-16T02:13:13;9.40;;;6.93;;
3771;SDS011;1901;48.172;12.824;2023-04-16T02:15:43;12.40;;;8.90;;
3771;SDS011;1901;48.172;12.824;2023-04-16T02:18:11;7.77;;;6.97;;
3771;SDS011;1901;48.172;12.824;2023-04-16T02:20:38;11.03;;;7.73;;
3771;SDS011;1901;48.172;12.824;2023-04-16T02:23:06;9.80;;;6.47;;
3771;SDS011;1901;48.172;12.824;2023-04-16T02:25:36;7.63;;;6.40;;
3771;SDS011;1901;48.172;12.824;2023-04-16T02:28:05;11.93;;;7.23;;
3771;SDS011;1901;48.172;12.824;2023-04-16T02:30:33;6.97;;;5.30;;
3771;SDS011;1901;48.172;12.824;2023-04-16T02:33:00;7.93;;;6.63;;
3771;SDS011;1901;48.172;12.824;2023-04-16T02:35:29;9.07;;;7.33;;
3771;SDS011;1901;48.172;12.824;2023-04-16T02:37:56;11.70;;;7.20;;
3771;SDS011;1901;48.172;12.824;2023-04-16T02:40:23;10.00;;;7.73;;
3771;SDS011;1901;48.172;12.824;2023-04-16T02:42:51;7.17;;;6.37;;
3771;SDS011;1901;48.172;12.824;2023-04-16T02:45:18;7.53;;;6.00;;
3771;SDS011;1901;48.172;12.824;2023-04-16T02:47:46;7.60;;;6.50;;
3771;SDS011;1901;48.172;12.824;2023-04-16T02:50:14;9.17;;;6.00;;
3771;SDS011;1901;48.172;12.824;2023-04-16T02:52:41;7.03;;;5.70;;
3771;SDS011;1901;48.172;12.824;2023-04-16T02:55:09;6.40;;;5.33;;
3771;SDS011;1901;48.172;12.824;2023-04-16T02:57:36;13.70;;;6.80;;
3771;SDS011;1901;48.172;12.824;2023-04-16T03:00:03;6.53;;;5.40;;
3771;SDS011;1901;48.172;12.824;2023-04-16T03:02:31;10.50;;;6.27;;
3771;SDS011;1901;48.172;12.824;2023-04-16T03:04:59;9.30;;;6.70;;
3771;SDS011;1901;48.172;12.824;2023-04-16T03:07:26;7.80;;;5.83;;
3771;SDS011;1901;48.172;12.824;2023-04-16T03:09:54;7.60;;;6.10;;
3771;SDS011;1901;48.172;12.824;2023-04-16T03:12:21;11.50;;;7.80;;
3771;SDS011;1901;48.172;12.824;2023-04-16T03:14:49;12.27;;;7.43;;
3771;SDS011;1901;48.172;12.824;2023-04-16T03:17:16;10.83;;;6.67;;
3771;SDS011;1901;48.172;12.824;2023-04-16T03:19:43;9.50;;;7.40;;
3771;SDS011;1901;48.172;12.824;2023-04-16T03:22:12;12.00;;;8.97;;
3771;SDS011;1901;48.172;12.824;2023-04-16T03:24:39;9.40;;;7.07;;
3771;SDS011;1901;48.172;12.824;2023-04-16T03:27:06;10.83;;;7.90;;
3771;SDS011;1901;48.172;12.824;2023-04-16T03:29:35;11.50;;;7.00;;
3771;SDS011;1901;48.172;12.824;2023-04-16T03:32:02;12.23;;;8.20;;
3771;SDS011;1901;48.172;12.824;2023-04-16T03:34:29;11.67;;;7.90;;
3771;SDS011;1901;48.172;12.824;2023-04-16T03:36:56;12.23;;;7.80;;
3771;SDS011;1901;48.172;12.824;2023-04-16T03:39:25;14.53;;;8.97;;
3771;SDS011;1901;48.172;12.824;2023-04-16T03:41:52;13.90;;;9.30;;
3771;SDS011;1901;48.172;12.824;2023-04-16T03:44:19;13.43;;;8.53;;
3771;SDS011;1901;48.172;12.824;2023-04-16T03:46:46;10.83;;;8.10;;
3771;SDS011;1901;48.172;12.824;2023-04-16T03:49:14;14.70;;;9.73;;
3771;SDS011;1901;48.172;12.824;2023-04-16T03:51:41;10.00;;;7.97;;
3771;SDS011;1901;48.172;12.824;2023-04-16T03:54:08;16.83;;;9.40;;
3771;SDS011;1901;48.172;12.824;2023-04-16T03:56:37;14.33;;;9.70;;
3771;SDS011;1901;48.172;12.824;2023-04-16T03:59:05;11.73;;;8.27;;
3771;SDS011;1901;48.172;12.824;2023-04-16T04:01:32;12.77;;;9.27;;
3771;SDS011;1901;48.172;12.824;2023-04-16T04:03:59;14.77;;;10.07;;
3771;SDS011;1901;48.172;12.824;2023-04-16T04:06:27;14.30;;;9.90;;
3771;SDS011;1901;48.172;12.824;2023-04-16T04:08:54;12.17;;;8.80;;
3771;SDS011;1901;48.172;12.824;2023-04-16T04:11:22;12.40;;;8.70;;
3771;SDS011;1901;48.172;12.824;2023-04-16T04:13:50;10.20;;;8.60;;
3771;SDS011;1901;48.172;12.824;2023-04-16T04:16:17;12.23;;;8.70;;
3771;SDS011;1901;48.172;12.824;2023-04-16T04:18:44;14.20;;;9.93;;
3771;SDS011;1901;48.172;12.824;2023-04-16T04:21:11;15.60;;;10.90;;
3771;SDS011;1901;48.172;12.824;2023-04-16T04:23:39;14.17;;;10.20;;
3771;SDS011;1901;48.172;12.824;2023-04-16T04:26:06;16.07;;;9.80;;
3771;SDS011;1901;48.172;12.824;2023-04-16T04:28:34;15.50;;;9.60;;
3771;SDS011;1901;48.172;12.824;2023-04-16T04:31:02;15.17;;;9.90;;
3771;SDS011;1901;48.172;12.824;2023-04-16T04:33:29;15.77;;;10.70;;
3771;SDS011;1901;48.172;12.824;2023-04-16T04:35:56;13.00;;;10.57;;
3771;SDS011;1901;48.172;12.824;2023-04-16T04:38:24;16.23;;;10.37;;
3771;SDS011;1901;48.172;12.824;2023-04-16T04:40:51;12.20;;;8.90;;
3771;SDS011;1901;48.172;12.824;2023-04-16T04:43:18;16.93;;;10.33;;
3771;SDS011;1901;48.172;12.824;2023-04-16T04:45:45;11.37;;;8.77;;
3771;SDS011;1901;48.172;12.824;2023-04-16T04:48:14;19.23;;;9.33;;
3771;SDS011;1901;48.172;12.824;2023-04-16T04:50:43;15.33;;;9.53;;
3771;SDS011;1901;48.172;12.824;2023-04-16T04:53:10;14.67;;;12.07;;
3771;SDS011;1901;48.172;12.824;2023-04-16T04:55:39;21.57;;;15.07;;
3771;SDS011;1901;48.172;12.824;2023-04-16T04:58:06;13.80;;;9.83;;
3771;SDS011;1901;48.172;12.824;2023-04-16T05:00:34;11.77;;;9.20;;
3771;SDS011;1901;48.172;12.824;2023-04-16T05:03:02;13.80;;;9.57;;
3771;SDS011;1901;48.172;12.824;2023-04-16T05:05:30;14.20;;;10.27;;
3771;SDS011;1901;48.172;12.824;2023-04-16T05:07:57;11.17;;;9.13;;
3771;SDS011;1901;48.172;12.824;2023-04-16T05:10:25;14.13;;;8.73;;
3771;SDS011;1901;48.172;12.824;2023-04-16T05:12:52;11.83;;;8.40;;
3771;SDS011;1901;48.172;12.824;2023-04-16T05:15:19;12.77;;;9.77;;
3771;SDS011;1901;48.172;12.824;2023-04-16T05:17:46;11.40;;;9.20;;
3771;SDS011;1901;48.172;12.824;2023-04-16T05:20:13;11.83;;;8.80;;
3771;SDS011;1901;48.172;12.824;2023-04-16T05:22:42;12.13;;;8.73;;
3771;SDS011;1901;48.172;12.824;2023-04-16T05:25:09;12.73;;;9.70;;
3771;SDS011;1901;48.172;12.824;2023-04-16T05:27:36;10.10;;;8.60;;
3771;SDS011;1901;48.172;12.824;2023-04-16T05:30:04;12.20;;;8.23;;
3771;SDS011;1901;48.172;12.824;2023-04-16T05:32:31;11.37;;;8.00;;
3771;SDS011;1901;48.172;12.824;2023-04-16T05:34:58;11.40;;;8.97;;
3771;SDS011;1901;48.172;12.824;2023-04-16T05:37:25;11.97;;;8.67;;
3771;SDS011;1901;48.172;12.824;2023-04-16T05:39:54;8.40;;;7.30;;
3771;SDS011;1901;48.172;12.824;2023-04-16T05:42:21;8.43;;;7.00;;
3771;SDS011;1901;48.172;12.824;2023-04-16T05:44:49;9.73;;;7.60;;
3771;SDS011;1901;48.172;12.824;2023-04-16T05:47:17;12.23;;;8.63;;
3771;SDS011;1901;48.172;12.824;2023-04-16T05:49:44;8.97;;;7.83;;
3771;SDS011;1901;48.172;12.824;2023-04-16T05:52:11;9.33;;;7.47;;
3771;SDS011;1901;48.172;12.824;2023-04-16T05:54:39;10.33;;;8.00;;
3771;SDS011;1901;48.172;12.824;2023-04-16T05:57:07;10.20;;;8.60;;
3771;SDS011;1901;48.172;12.824;2023-04-16T05:59:34;12.40;;;9.00;;
3771;SDS011;1901;48.172;12.824;2023-04-16T06:02:01;19.50;;;13.30;;
3771;SDS011;1901;48.172;12.824;2023-04-16T06:04:29;10.80;;;8.60;;
3771;SDS011;1901;48.172;12.824;2023-04-16T06:06:56;11.33;;;8.50;;
3771;SDS011;1901;48.172;12.824;2023-04-16T06:09:23;10.67;;;8.70;;
3771;SDS011;1901;48.172;12.824;2023-04-16T06:11:50;11.30;;;8.60;;
3771;SDS011;1901;48.172;12.824;2023-04-16T06:14:19;10.67;;;8.63;;
3771;SDS011;1901;48.172;12.824;2023-04-16T06:16:46;9.60;;;7.10;;
3771;SDS011;1901;48.172;12.824;2023-04-16T06:19:13;11.03;;;8.70;;
3771;SDS011;1901;48.172;12.824;2023-04-16T06:21:40;10.33;;;8.57;;
3771;SDS011;1901;48.172;12.824;2023-04-16T06:24:07;10.67;;;8.30;;
3771;SDS011;1901;48.172;12.824;2023-04-16T06:26:34;12.60;;;9.50;;
3771;SDS011;1901;48.172;12.824;2023-04-16T06:29:02;10.70;;;7.37;;
3771;SDS011;1901;48.172;12.824;2023-04-16T06:31:30;10.70;;;7.67;;
3771;SDS011;1901;48.172;12.824;2023-04-16T06:33:57;10.37;;;8.33;;
3771;SDS011;1901;48.172;12.824;2023-04-16T06:36:25;8.30;;;7.20;;
3771;SDS011;1901;48.172;12.824;2023-04-16T06:38:53;9.13;;;7.10;;
3771;SDS011;1901;48.172;12.824;2023-04-16T06:41:20;9.20;;;6.23;;
3771;SDS011;1901;48.172;12.824;2023-04-16T06:43:49;13.50;;;7.70;;
3771;SDS011;1901;48.172;12.824;2023-04-16T06:46:16;10.33;;;7.47;;
3771;SDS011;1901;48.172;12.824;2023-04-16T06:48:45;8.87;;;7.20;;
3771;SDS011;1901;48.172;12.824;2023-04-16T06:51:12;9.37;;;7.27;;
3771;SDS011;1901;48.172;12.824;2023-04-16T06:53:39;9.30;;;7.30;;
3771;SDS011;1901;48.172;12.824;2023-04-16T06:56:07;10.30;;;8.90;;
3771;SDS011;1901;48.172;12.824;2023-04-16T06:58:34;7.00;;;6.30;;
3771;SDS011;1901;48.172;12.824;2023-04-16T07:01:02;6.13;;;5.47;;
3771;SDS011;1901;48.172;12.824;2023-04-16T07:03:29;5.90;;;5.03;;
3771;SDS011;1901;48.172;12.824;2023-04-16T07:05:58;6.40;;;5.40;;
3771;SDS011;1901;48.172;12.824;2023-04-16T07:08:25;6.60;;;5.60;;
3771;SDS011;1901;48.172;12.824;2023-04-16T07:10:52;8.13;;;6.50;;
3771;SDS011;1901;48.172;12.824;2023-04-16T07:13:19;9.67;;;6.90;;
3771;SDS011;1901;48.172;12.824;2023-04-16T07:15:47;5.00;;;4.50;;
3771;SDS011;1901;48.172;12.824;2023-04-16T07:18:14;6.30;;;4.93;;
3771;SDS011;1901;48.172;12.824;2023-04-16T07:20:41;8.30;;;5.63;;
3771;SDS011;1901;48.172;12.824;2023-04-16T07:23:10;8.63;;;6.50;;
3771;SDS011;1901;48.172;12.824;2023-04-16T07:25:37;5.33;;;4.83;;
3771;SDS011;1901;48.172;12.824;2023-04-16T07:28:05;5.67;;;5.07;;
3771;SDS011;1901;48.172;12.824;2023-04-16T07:30:33;6.13;;;5.50;;
3771;SDS011;1901;48.172;12.824;2023-04-16T07:33:00;7.33;;;5.87;;
3771;SDS011;1901;48.172;12.824;2023-04-16T07:35:27;7.37;;;5.03;;
3771;SDS011;1901;48.172;12.824;2023-04-16T07:37:54;6.20;;;5.60;;
3771;SDS011;1901;48.172;12.824;2023-04-16T07:40:23;6.50;;;5.63;;
3771;SDS011;1901;48.172;12.824;2023-04-16T07:42:50;5.73;;;5.13;;
3771;SDS011;1901;48.172;12.824;2023-04-16T07:45:17;5.97;;;5.37;;
3771;SDS011;1901;48.172;12.824;2023-04-16T07:47:44;4.97;;;4.20;;
3771;SDS011;1901;48.172;12.824;2023-04-16T07:50:12;4.43;;;4.03;;
3771;SDS011;1901;48.172;12.824;2023-04-16T07:52:40;4.27;;;3.87;;
3771;SDS011;1901;48.172;12.824;2023-04-16T07:55:09;5.90;;;5.30;;
3771;SDS011;1901;48.172;12.824;2023-04-16T07:57:39;6.67;;;5.47;;
3771;SDS011;1901;48.172;12.824;2023-04-16T08:00:07;7.53;;;5.67;;
3771;SDS011;1901;48.172;12.824;2023-04-16T08:02:34;5.03;;;4.53;;
3771;SDS011;1901;48.172;12.824;2023-04-16T08:05:01;4.30;;;3.90;;
3771;SDS011;1901;48.172;12.824;2023-04-16T08:07:28;5.50;;;4.87;;
3771;SDS011;1901;48.172;12.824;2023-04-16T08:09:55;4.43;;;4.03;;
3771;SDS011;1901;48.172;12.824;2023-04-16T08:12:23;7.27;;;5.40;;
3771;SDS011;1901;48.172;12.824;2023-04-16T08:14:51;4.73;;;4.23;;
3771;SDS011;1901;48.172;12.824;2023-04-16T08:17:22;6.87;;;5.83;;
3771;SDS011;1901;48.172;12.824;2023-04-16T08:19:49;4.80;;;4.40;;
3771;SDS011;1901;48.172;12.824;2023-04-16T08:22:16;5.27;;;4.77;;
3771;SDS011;1901;48.172;12.824;2023-04-16T08:24:43;5.37;;;4.87;;
3771;SDS011;1901;48.172;12.824;2023-04-16T08:27:10;8.93;;;6.77;;
3771;SDS011;1901;48.172;12.824;2023-04-16T08:29:37;7.27;;;6.40;;
3771;SDS011;1901;48.172;12.824;2023-04-16T08:32:06;6.07;;;5.47;;
3771;SDS011;1901;48.172;12.824;2023-04-16T08:34:34;5.33;;;4.50;;
3771;SDS011;1901;48.172;12.824;2023-04-16T08:37:01;8.87;;;4.60;;
3771;SDS011;1901;48.172;12.824;2023-04-16T08:39:28;5.23;;;4.73;;
3771;SDS011;1901;48.172;12.824;2023-04-16T08:41:55;6.47;;;4.60;;
3771;SDS011;1901;48.172;12.824;2023-04-16T08:44:24;6.90;;;4.47;;
3771;SDS011;1901;48.172;12.824;2023-04-16T08:46:52;5.93;;;4.80;;
3771;SDS011;1901;48.172;12.824;2023-04-16T08:49:22;7.00;;;4.70;;
3771;SDS011;1901;48.172;12.824;2023-04-16T08:51:52;6.23;;;5.40;;
3771;SDS011;1901;48.172;12.824;2023-04-16T08:54:22;3.67;;;3.37;;
3771;SDS011;1901;48.172;12.824;2023-04-16T08:56:51;5.53;;;4.30;;
3771;SDS011;1901;48.172;12.824;2023-04-16T08:59:18;3.90;;;3.60;;
3771;SDS011;1901;48.172;12.824;2023-04-16T09:01:45;4.80;;;4.07;;
3771;SDS011;1901;48.172;12.824;2023-04-16T09:04:13;4.23;;;3.23;;
3771;SDS011;1901;48.172;12.824;2023-04-16T09:06:42;4.57;;;4.17;;
3771;SDS011;1901;48.172;12.824;2023-04-16T09:09:10;6.30;;;4.83;;
3771;SDS011;1901;48.172;12.824;2023-04-16T09:11:37;5.80;;;4.40;;
3771;SDS011;1901;48.172;12.824;2023-04-16T09:14:06;4.00;;;3.47;;
3771;SDS011;1901;48.172;12.824;2023-04-16T09:16:36;3.90;;;3.50;;
3771;SDS011;1901;48.172;12.824;2023-04-16T09:19:03;4.03;;;3.40;;
3771;SDS011;1901;48.172;12.824;2023-04-16T09:21:30;3.37;;;3.07;;
3771;SDS011;1901;48.172;12.824;2023-04-16T09:23:59;5.43;;;3.97;;
3771;SDS011;1901;48.172;12.824;2023-04-16T09:26:27;4.90;;;3.70;;
3771;SDS011;1901;48.172;12.824;2023-04-16T09:28:54;5.00;;;4.13;;
3771;SDS011;1901;48.172;12.824;2023-04-16T09:31:22;5.40;;;3.77;;
3771;SDS011;1901;48.172;12.824;2023-04-16T09:36:31;3.77;;;3.40;;
3771;SDS011;1901;48.172;12.824;2023-04-16T09:39:00;5.70;;;3.33;;
3771;SDS011;1901;48.172;12.824;2023-04-16T09:41:28;4.97;;;3.90;;
3771;SDS011;1901;48.172;12.824;2023-04-16T09:43:56;3.17;;;2.87;;
3771;SDS011;1901;48.172;12.824;2023-04-16T09:46:23;5.40;;;3.63;;
3771;SDS011;1901;48.172;12.824;2023-04-16T09:48:51;2.70;;;2.50;;
3771;SDS011;1901;48.172;12.824;2023-04-16T09:51:18;6.00;;;4.53;;
3771;SDS011;1901;48.172;12.824;2023-04-16T09:53:45;3.80;;;3.30;;
3771;SDS011;1901;48.172;12.824;2023-04-16T09:56:15;3.57;;;2.80;;
3771;SDS011;1901;48.172;12.824;2023-04-16T09:58:42;5.73;;;2.90;;
3771;SDS011;1901;48.172;12.824;2023-04-16T10:01:10;3.83;;;3.47;;
3771;SDS011;1901;48.172;12.824;2023-04-16T10:03:38;4.10;;;3.23;;
3771;SDS011;1901;48.172;12.824;2023-04-16T10:06:06;2.90;;;2.53;;
3771;SDS011;1901;48.172;12.824;2023-04-16T10:08:34;3.33;;;2.67;;
3771;SDS011;1901;48.172;12.824;2023-04-16T10:11:01;3.80;;;2.43;;
3771;SDS011;1901;48.172;12.824;2023-04-16T10:13:30;4.30;;;2.50;;
3771;SDS011;1901;48.172;12.824;2023-04-16T10:15:57;3.47;;;2.63;;
3771;SDS011;1901;48.172;12.824;2023-04-16T10:18:25;2.63;;;2.30;;
3771;SDS011;1901;48.172;12.824;2023-04-16T10:20:53;3.60;;;2.90;;
3771;SDS011;1901;48.172;12.824;2023-04-16T10:23:21;3.30;;;2.83;;
3771;SDS011;1901;48.172;12.824;2023-04-16T10:25:48;3.27;;;2.97;;
3771;SDS011;1901;48.172;12.824;2023-04-16T10:28:16;2.40;;;2.20;;
3771;SDS011;1901;48.172;12.824;2023-04-16T10:30:46;2.73;;;2.33;;
3771;SDS011;1901;48.172;12.824;2023-04-16T10:33:18;6.00;;;4.37;;
3771;SDS011;1901;48.172;12.824;2023-04-16T10:35:47;3.00;;;2.60;;
3771;SDS011;1901;48.172;12.824;2023-04-16T10:38:20;3.70;;;3.30;;
3771;SDS011;1901;48.172;12.824;2023-04-16T10:40:48;4.10;;;2.53;;
3771;SDS011;1901;48.172;12.824;2023-04-16T10:43:16;4.00;;;1.80;;
3771;SDS011;1901;48.172;12.824;2023-04-16T10:45:46;3.23;;;2.80;;
3771;SDS011;1901;48.172;12.824;2023-04-16T10:48:13;2.40;;;2.20;;
3771;SDS011;1901;48.172;12.824;2023-04-16T10:50:52;2.17;;;1.97;;
3771;SDS011;1901;48.172;12.824;2023-04-16T10:53:22;1.70;;;1.50;;
3771;SDS011;1901;48.172;12.824;2023-04-16T10:55:56;2.20;;;1.87;;
3771;SDS011;1901;48.172;12.824;2023-04-16T10:58:27;3.00;;;1.60;;
3771;SDS011;1901;48.172;12.824;2023-04-16T11:00:55;5.03;;;1.70;;
3771;SDS011;1901;48.172;12.824;2023-04-16T11:03:28;2.10;;;1.90;;
3771;SDS011;1901;48.172;12.824;2023-04-16T11:06:08;1.90;;;1.53;;
3771;SDS011;1901;48.172;12.824;2023-04-16T11:08:36;3.40;;;1.70;;
3771;SDS011;1901;48.172;12.824;2023-04-16T11:11:04;2.27;;;2.03;;
3771;SDS011;1901;48.172;12.824;2023-04-16T11:13:31;2.40;;;2.00;;
3771;SDS011;1901;48.172;12.824;2023-04-16T11:16:01;3.73;;;2.60;;
3771;SDS011;1901;48.172;12.824;2023-04-16T11:18:28;2.17;;;1.67;;
3771;SDS011;1901;48.172;12.824;2023-04-16T11:20:56;2.20;;;2.00;;
3771;SDS011;1901;48.172;12.824;2023-04-16T11:23:24;3.63;;;3.20;;
3771;SDS011;1901;48.172;12.824;2023-04-16T11:25:51;2.00;;;1.70;;
3771;SDS011;1901;48.172;12.824;2023-04-16T11:28:31;2.00;;;1.80;;
3771;SDS011;1901;48.172;12.824;2023-04-16T11:31:00;2.30;;;1.80;;
3771;SDS011;1901;48.172;12.824;2023-04-16T11:33:37;6.43;;;1.90;;
3771;SDS011;1901;48.172;12.824;2023-04-16T11:36:05;2.47;;;1.97;;
3771;SDS011;1901;48.172;12.824;2023-04-16T11:38:33;3.00;;;2.07;;
3771;SDS011;1901;48.172;12.824;2023-04-16T11:41:01;3.20;;;2.10;;
3771;SDS011;1901;48.172;12.824;2023-04-16T11:43:28;5.73;;;1.60;;
3771;SDS011;1901;48.172;12.824;2023-04-16T11:45:56;2.43;;;2.10;;
3771;SDS011;1901;48.172;12.824;2023-04-16T11:48:23;2.43;;;1.90;;
3771;SDS011;1901;48.172;12.824;2023-04-16T11:50:56;1.93;;;1.63;;
3771;SDS011;1901;48.172;12.824;2023-04-16T11:53:23;2.07;;;1.67;;
3771;SDS011;1901;48.172;12.824;2023-04-16T11:55:51;3.50;;;2.67;;
3771;SDS011;1901;48.172;12.824;2023-04-16T11:58:18;4.43;;;2.63;;
3771;SDS011;1901;48.172;12.824;2023-04-16T12:00:47;6.70;;;4.50;;
3771;SDS011;1901;48.172;12.824;2023-04-16T12:03:17;5.70;;;4.27;;
3771;SDS011;1901;48.172;12.824;2023-04-16T12:05:44;4.00;;;3.60;;
3771;SDS011;1901;48.172;12.824;2023-04-16T12:08:16;2.67;;;2.40;;
3771;SDS011;1901;48.172;12.824;2023-04-16T12:10:54;3.13;;;2.60;;
3771;SDS011;1901;48.172;12.824;2023-04-16T12:13:24;2.90;;;2.53;;
3771;SDS011;1901;48.172;12.824;2023-04-16T12:15:51;4.60;;;2.30;;
3771;SDS011;1901;48.172;12.824;2023-04-16T12:18:19;4.43;;;2.57;;
3771;SDS011;1901;48.172;12.824;2023-04-16T12:20:47;2.93;;;2.30;;
3771;SDS011;1901;48.172;12.824;2023-04-16T12:23:23;3.70;;;2.33;;
3771;SDS011;1901;48.172;12.824;2023-04-16T12:25:51;1.80;;;1.50;;
3771;SDS011;1901;48.172;12.824;2023-04-16T12:28:28;1.87;;;1.60;;
3771;SDS011;1901;48.172;12.824;2023-04-16T12:30:55;3.43;;;2.50;;
3771;SDS011;1901;48.172;12.824;2023-04-16T12:33:23;1.90;;;1.70;;
3771;SDS011;1901;48.172;12.824;2023-04-16T12:35:50;3.60;;;2.67;;
3771;SDS011;1901;48.172;12.824;2023-04-16T12:38:17;11.57;;;3.70;;
3771;SDS011;1901;48.172;12.824;2023-04-16T12:40:46;2.60;;;2.40;;
3771;SDS011;1901;48.172;12.824;2023-04-16T12:43:13;3.57;;;2.70;;
3771;SDS011;1901;48.172;12.824;2023-04-16T12:45:41;2.50;;;2.00;;
3771;SDS011;1901;48.172;12.824;2023-04-16T12:48:08;2.83;;;2.40;;
3771;SDS011;1901;48.172;12.824;2023-04-16T12:50:35;1.90;;;1.50;;
3771;SDS011;1901;48.172;12.824;2023-04-16T12:53:03;2.50;;;1.90;;
3771;SDS011;1901;48.172;12.824;2023-04-16T12:55:30;1.90;;;1.70;;
3771;SDS011;1901;48.172;12.824;2023-04-16T12:57:59;2.57;;;2.13;;
3771;SDS011;1901;48.172;12.824;2023-04-16T13:00:26;3.00;;;2.23;;
3771;SDS011;1901;48.172;12.824;2023-04-16T13:02:54;2.13;;;1.80;;
3771;SDS011;1901;48.172;12.824;2023-04-16T13:05:22;3.13;;;2.80;;
3771;SDS011;1901;48.172;12.824;2023-04-16T13:07:50;3.70;;;2.53;;
3771;SDS011;1901;48.172;12.824;2023-04-16T13:10:19;2.80;;;2.20;;
3771;SDS011;1901;48.172;12.824;2023-04-16T13:12:49;2.63;;;2.00;;
3771;SDS011;1901;48.172;12.824;2023-04-16T13:15:31;2.40;;;2.03;;
3771;SDS011;1901;48.172;12.824;2023-04-16T13:17:58;3.03;;;2.10;;
3771;SDS011;1901;48.172;12.824;2023-04-16T13:20:25;2.87;;;2.13;;
3771;SDS011;1901;48.172;12.824;2023-04-16T13:22:53;2.40;;;1.87;;
3771;SDS011;1901;48.172;12.824;2023-04-16T13:25:20;2.13;;;1.87;;
3771;SDS011;1901;48.172;12.824;2023-04-16T13:27:48;2.57;;;2.10;;
3771;SDS011;1901;48.172;12.824;2023-04-16T13:30:15;5.77;;;2.10;;
3771;SDS011;1901;48.172;12.824;2023-04-16T13:32:43;3.60;;;3.30;;
3771;SDS011;1901;48.172;12.824;2023-04-16T13:35:11;2.27;;;1.93;;
3771;SDS011;1901;48.172;12.824;2023-04-16T13:37:38;2.30;;;2.10;;
3771;SDS011;1901;48.172;12.824;2023-04-16T13:40:06;3.97;;;2.60;;
3771;SDS011;1901;48.172;12.824;2023-04-16T13:42:33;2.30;;;1.83;;
3771;SDS011;1901;48.172;12.824;2023-04-16T13:45:01;2.10;;;1.87;;
3771;SDS011;1901;48.172;12.824;2023-04-16T13:47:28;2.30;;;1.70;;
3771;SDS011;1901;48.172;12.824;2023-04-16T13:49:56;3.23;;;1.43;;
3771;SDS011;1901;48.172;12.824;2023-04-16T13:52:24;2.23;;;1.60;;
3771;SDS011;1901;48.172;12.824;2023-04-16T13:54:51;3.10;;;1.33;;
3771;SDS011;1901;48.172;12.824;2023-04-16T13:57:18;2.73;;;1.83;;
3771;SDS011;1901;48.172;12.824;2023-04-16T13:59:46;1.73;;;1.23;;
3771;SDS011;1901;48.172;12.824;2023-04-16T14:02:13;3.03;;;1.20;;
3771;SDS011;1901;48.172;12.824;2023-04-16T14:04:40;2.60;;;2.17;;
3771;SDS011;1901;48.172;12.824;2023-04-16T14:07:11;1.60;;;1.17;;
3771;SDS011;1901;48.172;12.824;2023-04-16T14:09:39;1.40;;;1.00;;
3771;SDS011;1901;48.172;12.824;2023-04-16T14:12:06;1.40;;;1.00;;
3771;SDS011;1901;48.172;12.824;2023-04-16T14:14:33;1.40;;;1.10;;
3771;SDS011;1901;48.172;12.824;2023-04-16T14:17:01;1.20;;;0.97;;
3771;SDS011;1901;48.172;12.824;2023-04-16T14:19:29;1.70;;;1.00;;
3771;SDS011;1901;48.172;12.824;2023-04-16T14:21:56;2.30;;;1.20;;
3771;SDS011;1901;48.172;12.824;2023-04-16T14:24:24;1.97;;;1.37;;
3771;SDS011;1901;48.172;12.824;2023-04-16T14:26:51;1.70;;;1.10;;
3771;SDS011;1901;48.172;12.824;2023-04-16T14:29:18;1.70;;;1.30;;
3771;SDS011;1901;48.172;12.824;2023-04-16T14:31:46;2.00;;;1.50;;
3771;SDS011;1901;48.172;12.824;2023-04-16T14:34:14;1.73;;;1.07;;
3771;SDS011;1901;48.172;12.824;2023-04-16T14:36:41;1.37;;;1.00;;
3771;SDS011;1901;48.172;12.824;2023-04-16T14:39:09;1.80;;;1.53;;
3771;SDS011;1901;48.172;12.824;2023-04-16T14:41:37;1.83;;;1.17;;
3771;SDS011;1901;48.172;12.824;2023-04-16T14:44:05;2.00;;;1.67;;
3771;SDS011;1901;48.172;12.824;2023-04-16T14:46:32;1.80;;;1.33;;
3771;SDS011;1901;48.172;12.824;2023-04-16T14:49:00;1.70;;;1.40;;
3771;SDS011;1901;48.172;12.824;2023-04-16T14:51:27;1.33;;;1.03;;
3771;SDS011;1901;48.172;12.824;2023-04-16T14:53:55;1.50;;;1.10;;
3771;SDS011;1901;48.172;12.824;2023-04-16T14:56:22;1.40;;;1.20;;
3771;SDS011;1901;48.172;12.824;2023-04-16T14:58:51;1.80;;;1.40;;
3771;SDS011;1901;48.172;12.824;2023-04-16T15:01:18;1.50;;;1.17;;